sensor_id;sensor_type;location;lat;lon;timestamp;temperature;humidity
50804;DHT22;37205;51.434;6.756;2022-07-10T00:00:36;15.00;99.90
50804;DHT22;37205;51.434;6.756;2022-07-10T00:03:03;15.00;99.90
50804;DHT22;37205;51.434;6.756;2022-07-10T00:05:29;15.10;99.90
50804;DHT22;37205;51.434;6.756;2022-07-10T00:07:55;15.10;99.90
50804;DHT22;37205;51.434;6.756;2022-07-10T00:10:21;15.10;99.90
50804;DHT22;37205;51.434;6.756;2022-07-10T00:12:48;15.00;99.90
50804;DHT22;37205;51.434;6.756;2022-07-10T00:15:14;15.00;99.90
50804;DHT22;37205;51.434;6.756;2022-07-10T00:17:41;15.10;99.90
50804;DHT22;37205;51.434;6.756;2022-07-10T00:20:08;15.20;99.90
50804;DHT22;37205;51.434;6.756;2022-07-10T00:22:34;15.20;99.90
50804;DHT22;37205;51.434;6.756;2022-07-10T00:25:01;15.20;99.90
50804;DHT22;37205;51.434;6.756;2022-07-10T00:27:26;15.20;99.90
50804;DHT22;37205;51.434;6.756;2022-07-10T00:29:52;15.30;99.90
50804;DHT22;37205;51.434;6.756;2022-07-10T00:32:18;15.30;99.90
50804;DHT22;37205;51.434;6.756;2022-07-10T00:34:43;15.30;99.90
50804;DHT22;37205;51.434;6.756;2022-07-10T00:37:09;15.30;99.90
50804;DHT22;37205;51.434;6.756;2022-07-10T00:39:34;15.30;99.90
50804;DHT22;37205;51.434;6.756;2022-07-10T00:42:12;15.30;99.90
50804;DHT22;37205;51.434;6.756;2022-07-10T00:44:42;15.30;99.90
50804;DHT22;37205;51.434;6.756;2022-07-10T00:47:09;15.30;99.90
50804;DHT22;37205;51.434;6.756;2022-07-10T00:49:36;15.30;99.90
50804;DHT22;37205;51.434;6.756;2022-07-10T00:52:03;15.30;99.90
50804;DHT22;37205;51.434;6.756;2022-07-10T00:54:31;15.20;99.90
50804;DHT22;37205;51.434;6.756;2022-07-10T00:56:58;15.20;99.90
50804;DHT22;37205;51.434;6.756;2022-07-10T00:59:25;15.20;99.90
50804;DHT22;37205;51.434;6.756;2022-07-10T01:01:51;15.20;99.90
50804;DHT22;37205;51.434;6.756;2022-07-10T01:04:17;15.20;99.90
50804;DHT22;37205;51.434;6.756;2022-07-10T01:06:43;15.10;99.90
50804;DHT22;37205;51.434;6.756;2022-07-10T01:09:09;15.10;99.90
50804;DHT22;37205;51.434;6.756;2022-07-10T01:11:36;15.10;99.90
50804;DHT22;37205;51.434;6.756;2022-07-10T01:14:02;15.10;99.90
50804;DHT22;37205;51.434;6.756;2022-07-10T01:16:28;15.10;99.90
50804;DHT22;37205;51.434;6.756;2022-07-10T01:18:55;15.10;99.90
50804;DHT22;37205;51.434;6.756;2022-07-10T01:21:28;15.10;99.90
50804;DHT22;37205;51.434;6.756;2022-07-10T01:23:54;15.10;99.90
50804;DHT22;37205;51.434;6.756;2022-07-10T01:26:21;15.10;99.90
50804;DHT22;37205;51.434;6.756;2022-07-10T01:28:49;15.00;99.90
50804;DHT22;37205;51.434;6.756;2022-07-10T01:31:16;15.00;99.90
50804;DHT22;37205;51.434;6.756;2022-07-10T01:33:41;15.00;99.90
50804;DHT22;37205;51.434;6.756;2022-07-10T01:36:08;14.90;99.90
50804;DHT22;37205;51.434;6.756;2022-07-10T01:38:33;14.90;99.90
50804;DHT22;37205;51.434;6.756;2022-07-10T01:40:59;15.00;99.90
50804;DHT22;37205;51.434;6.756;2022-07-10T01:43:24;14.90;99.90
50804;DHT22;37205;51.434;6.756;2022-07-10T01:45:50;14.90;99.90
50804;DHT22;37205;51.434;6.756;2022-07-10T01:48:16;14.90;99.90
50804;DHT22;37205;51.434;6.756;2022-07-10T01:50:43;14.80;99.90
50804;DHT22;37205;51.434;6.756;2022-07-10T01:53:08;14.90;99.90
50804;DHT22;37205;51.434;6.756;2022-07-10T01:55:34;14.90;99.90
50804;DHT22;37205;51.434;6.756;2022-07-10T01:58:00;14.80;99.90
50804;DHT22;37205;51.434;6.756;2022-07-10T02:00:25;14.80;99.90
50804;DHT22;37205;51.434;6.756;2022-07-10T02:02:51;14.80;99.90
50804;DHT22;37205;51.434;6.756;2022-07-10T02:05:35;14.80;99.90
50804;DHT22;37205;51.434;6.756;2022-07-10T02:08:01;14.80;99.90
50804;DHT22;37205;51.434;6.756;2022-07-10T02:10:29;14.80;99.90
50804;DHT22;37205;51.434;6.756;2022-07-10T02:12:54;14.70;99.90
50804;DHT22;37205;51.434;6.756;2022-07-10T02:15:21;14.70;99.90
50804;DHT22;37205;51.434;6.756;2022-07-10T02:17:47;14.70;99.90
50804;DHT22;37205;51.434;6.756;2022-07-10T02:20:12;14.60;99.90
50804;DHT22;37205;51.434;6.756;2022-07-10T02:22:38;14.60;99.90
50804;DHT22;37205;51.434;6.756;2022-07-10T02:25:04;14.60;99.90
50804;DHT22;37205;51.434;6.756;2022-07-10T02:27:30;14.60;99.90
50804;DHT22;37205;51.434;6.756;2022-07-10T02:29:55;14.60;99.90
50804;DHT22;37205;51.434;6.756;2022-07-10T02:32:21;14.60;99.90
50804;DHT22;37205;51.434;6.756;2022-07-10T02:34:47;14.50;99.90
50804;DHT22;37205;51.434;6.756;2022-07-10T02:37:12;14.50;99.90
50804;DHT22;37205;51.434;6.756;2022-07-10T02:39:38;14.50;99.90
50804;DHT22;37205;51.434;6.756;2022-07-10T02:42:04;14.50;99.90
50804;DHT22;37205;51.434;6.756;2022-07-10T02:44:29;14.50;99.90
50804;DHT22;37205;51.434;6.756;2022-07-10T02:46:55;14.40;99.90
50804;DHT22;37205;51.434;6.756;2022-07-10T02:49:21;14.40;99.90
50804;DHT22;37205;51.434;6.756;2022-07-10T02:51:46;14.40;99.90
50804;DHT22;37205;51.434;6.756;2022-07-10T02:54:12;14.50;99.90
50804;DHT22;37205;51.434;6.756;2022-07-10T02:56:37;14.50;99.90
50804;DHT22;37205;51.434;6.756;2022-07-10T02:59:03;14.40;99.90
50804;DHT22;37205;51.434;6.756;2022-07-10T03:01:28;14.40;99.90
50804;DHT22;37205;51.434;6.756;2022-07-10T03:03:54;14.30;99.90
50804;DHT22;37205;51.434;6.756;2022-07-10T03:06:19;14.30;99.90
50804;DHT22;37205;51.434;6.756;2022-07-10T03:08:45;14.20;99.90
50804;DHT22;37205;51.434;6.756;2022-07-10T03:11:10;14.20;99.90
50804;DHT22;37205;51.434;6.756;2022-07-10T03:13:36;14.20;99.90
50804;DHT22;37205;51.434;6.756;2022-07-10T03:16:01;14.20;99.90
50804;DHT22;37205;51.434;6.756;2022-07-10T03:18:28;14.20;99.90
50804;DHT22;37205;51.434;6.756;2022-07-10T03:20:53;14.10;99.90
50804;DHT22;37205;51.434;6.756;2022-07-10T03:23:19;14.10;99.90
50804;DHT22;37205;51.434;6.756;2022-07-10T03:25:45;14.10;99.90
50804;DHT22;37205;51.434;6.756;2022-07-10T03:28:10;14.00;99.90
50804;DHT22;37205;51.434;6.756;2022-07-10T03:30:36;14.00;99.90
50804;DHT22;37205;51.434;6.756;2022-07-10T03:33:01;14.00;99.90
50804;DHT22;37205;51.434;6.756;2022-07-10T03:35:29;14.00;99.90
50804;DHT22;37205;51.434;6.756;2022-07-10T03:37:56;13.90;99.90
50804;DHT22;37205;51.434;6.756;2022-07-10T03:40:22;14.00;99.90
50804;DHT22;37205;51.434;6.756;2022-07-10T03:42:48;13.90;99.90
50804;DHT22;37205;51.434;6.756;2022-07-10T03:45:13;13.90;99.90
50804;DHT22;37205;51.434;6.756;2022-07-10T03:47:39;13.90;99.90
50804;DHT22;37205;51.434;6.756;2022-07-10T03:50:05;13.90;99.90
50804;DHT22;37205;51.434;6.756;2022-07-10T03:52:31;13.90;99.90
50804;DHT22;37205;51.434;6.756;2022-07-10T03:54:56;13.90;99.90
50804;DHT22;37205;51.434;6.756;2022-07-10T03:57:22;13.90;99.90
50804;DHT22;37205;51.434;6.756;2022-07-10T04:00:07;13.90;99.90
50804;DHT22;37205;51.434;6.756;2022-07-10T04:02:33;13.90;99.90
50804;DHT22;37205;51.434;6.756;2022-07-10T04:04:58;13.90;99.90
50804;DHT22;37205;51.434;6.756;2022-07-10T04:07:24;13.90;99.90
50804;DHT22;37205;51.434;6.756;2022-07-10T04:09:49;13.90;99.90
50804;DHT22;37205;51.434;6.756;2022-07-10T04:12:15;13.80;99.90
50804;DHT22;37205;51.434;6.756;2022-07-10T04:14:41;13.90;99.90
50804;DHT22;37205;51.434;6.756;2022-07-10T04:17:06;13.80;99.90
50804;DHT22;37205;51.434;6.756;2022-07-10T04:19:32;13.80;99.90
50804;DHT22;37205;51.434;6.756;2022-07-10T04:21:57;13.80;99.90
50804;DHT22;37205;51.434;6.756;2022-07-10T04:24:23;13.80;99.90
50804;DHT22;37205;51.434;6.756;2022-07-10T04:26:49;13.80;99.90
50804;DHT22;37205;51.434;6.756;2022-07-10T04:29:14;13.80;99.90
50804;DHT22;37205;51.434;6.756;2022-07-10T04:31:40;13.80;99.90
50804;DHT22;37205;51.434;6.756;2022-07-10T04:34:05;13.80;99.90
50804;DHT22;37205;51.434;6.756;2022-07-10T04:36:31;13.90;99.90
50804;DHT22;37205;51.434;6.756;2022-07-10T04:38:56;13.90;99.90
50804;DHT22;37205;51.434;6.756;2022-07-10T04:41:22;13.90;99.90
50804;DHT22;37205;51.434;6.756;2022-07-10T04:43:48;14.00;99.90
50804;DHT22;37205;51.434;6.756;2022-07-10T04:46:13;14.00;99.90
50804;DHT22;37205;51.434;6.756;2022-07-10T04:48:39;14.00;99.90
50804;DHT22;37205;51.434;6.756;2022-07-10T04:51:04;14.10;99.90
50804;DHT22;37205;51.434;6.756;2022-07-10T04:53:30;14.10;99.90
50804;DHT22;37205;51.434;6.756;2022-07-10T04:55:56;14.20;99.90
50804;DHT22;37205;51.434;6.756;2022-07-10T04:58:21;14.30;99.90
50804;DHT22;37205;51.434;6.756;2022-07-10T05:00:47;14.40;99.90
50804;DHT22;37205;51.434;6.756;2022-07-10T05:03:12;14.50;99.90
50804;DHT22;37205;51.434;6.756;2022-07-10T05:05:41;14.50;99.90
50804;DHT22;37205;51.434;6.756;2022-07-10T05:08:06;14.50;99.90
50804;DHT22;37205;51.434;6.756;2022-07-10T05:10:32;14.50;99.90
50804;DHT22;37205;51.434;6.756;2022-07-10T05:12:57;14.50;99.90
50804;DHT22;37205;51.434;6.756;2022-07-10T05:15:23;14.60;99.90
50804;DHT22;37205;51.434;6.756;2022-07-10T05:17:48;14.60;99.90
50804;DHT22;37205;51.434;6.756;2022-07-10T05:20:14;14.70;99.90
50804;DHT22;37205;51.434;6.756;2022-07-10T05:22:39;14.80;99.90
50804;DHT22;37205;51.434;6.756;2022-07-10T05:25:05;14.70;99.90
50804;DHT22;37205;51.434;6.756;2022-07-10T05:27:30;14.80;99.90
50804;DHT22;37205;51.434;6.756;2022-07-10T05:29:56;14.90;99.90
50804;DHT22;37205;51.434;6.756;2022-07-10T05:32:21;14.90;99.90
50804;DHT22;37205;51.434;6.756;2022-07-10T05:34:47;15.00;99.90
50804;DHT22;37205;51.434;6.756;2022-07-10T05:37:13;15.10;99.90
50804;DHT22;37205;51.434;6.756;2022-07-10T05:39:38;15.10;99.90
50804;DHT22;37205;51.434;6.756;2022-07-10T05:42:04;15.20;99.90
50804;DHT22;37205;51.434;6.756;2022-07-10T05:44:30;15.20;99.90
50804;DHT22;37205;51.434;6.756;2022-07-10T05:46:55;15.30;99.90
50804;DHT22;37205;51.434;6.756;2022-07-10T05:49:21;15.30;99.90
50804;DHT22;37205;51.434;6.756;2022-07-10T05:51:47;15.20;99.90
50804;DHT22;37205;51.434;6.756;2022-07-10T05:54:12;15.20;99.90
50804;DHT22;37205;51.434;6.756;2022-07-10T05:56:38;15.20;99.90
50804;DHT22;37205;51.434;6.756;2022-07-10T05:59:03;15.20;99.90
50804;DHT22;37205;51.434;6.756;2022-07-10T06:01:29;15.20;99.90
50804;DHT22;37205;51.434;6.756;2022-07-10T06:03:55;15.20;99.90
50804;DHT22;37205;51.434;6.756;2022-07-10T06:06:20;15.20;99.90
50804;DHT22;37205;51.434;6.756;2022-07-10T06:08:46;15.20;99.90
50804;DHT22;37205;51.434;6.756;2022-07-10T06:11:12;15.20;99.90
50804;DHT22;37205;51.434;6.756;2022-07-10T06:13:38;15.20;99.90
50804;DHT22;37205;51.434;6.756;2022-07-10T06:16:04;15.20;99.90
50804;DHT22;37205;51.434;6.756;2022-07-10T06:18:30;15.20;99.90
50804;DHT22;37205;51.434;6.756;2022-07-10T06:20:56;15.10;99.90
50804;DHT22;37205;51.434;6.756;2022-07-10T06:23:21;15.10;99.90
50804;DHT22;37205;51.434;6.756;2022-07-10T06:25:47;15.10;99.90
50804;DHT22;37205;51.434;6.756;2022-07-10T06:28:15;15.10;99.90
50804;DHT22;37205;51.434;6.756;2022-07-10T06:30:40;15.00;99.90
50804;DHT22;37205;51.434;6.756;2022-07-10T06:33:06;15.00;99.90
50804;DHT22;37205;51.434;6.756;2022-07-10T06:35:32;15.10;99.90
50804;DHT22;37205;51.434;6.756;2022-07-10T06:37:57;15.10;99.90
50804;DHT22;37205;51.434;6.756;2022-07-10T06:40:23;15.20;99.90
50804;DHT22;37205;51.434;6.756;2022-07-10T06:42:49;15.20;99.90
50804;DHT22;37205;51.434;6.756;2022-07-10T06:45:14;15.20;99.90
50804;DHT22;37205;51.434;6.756;2022-07-10T06:47:40;15.20;99.90
50804;DHT22;37205;51.434;6.756;2022-07-10T06:50:22;15.20;99.90
50804;DHT22;37205;51.434;6.756;2022-07-10T06:52:49;15.30;99.90
50804;DHT22;37205;51.434;6.756;2022-07-10T06:55:15;15.20;99.90
50804;DHT22;37205;51.434;6.756;2022-07-10T06:57:41;15.30;99.90
50804;DHT22;37205;51.434;6.756;2022-07-10T07:00:07;15.30;99.90
50804;DHT22;37205;51.434;6.756;2022-07-10T07:02:35;15.30;99.90
50804;DHT22;37205;51.434;6.756;2022-07-10T07:05:01;15.40;99.90
50804;DHT22;37205;51.434;6.756;2022-07-10T07:07:27;15.40;99.90
50804;DHT22;37205;51.434;6.756;2022-07-10T07:09:52;15.30;99.90
50804;DHT22;37205;51.434;6.756;2022-07-10T07:12:18;15.30;99.90
50804;DHT22;37205;51.434;6.756;2022-07-10T07:14:44;15.30;99.90
50804;DHT22;37205;51.434;6.756;2022-07-10T07:17:09;15.30;99.90
50804;DHT22;37205;51.434;6.756;2022-07-10T07:19:37;15.30;99.90
50804;DHT22;37205;51.434;6.756;2022-07-10T07:22:23;15.30;99.90
50804;DHT22;37205;51.434;6.756;2022-07-10T07:25:09;15.30;99.90
50804;DHT22;37205;51.434;6.756;2022-07-10T07:27:37;15.30;99.90
50804;DHT22;37205;51.434;6.756;2022-07-10T07:30:07;15.30;99.90
50804;DHT22;37205;51.434;6.756;2022-07-10T07:32:34;15.30;99.90
50804;DHT22;37205;51.434;6.756;2022-07-10T07:35:00;15.40;99.90
50804;DHT22;37205;51.434;6.756;2022-07-10T07:37:39;15.30;99.90
50804;DHT22;37205;51.434;6.756;2022-07-10T07:40:08;15.30;99.90
50804;DHT22;37205;51.434;6.756;2022-07-10T07:42:33;15.30;99.90
50804;DHT22;37205;51.434;6.756;2022-07-10T07:44:59;15.30;99.90
50804;DHT22;37205;51.434;6.756;2022-07-10T07:47:25;15.30;99.90
50804;DHT22;37205;51.434;6.756;2022-07-10T07:49:51;15.30;99.90
50804;DHT22;37205;51.434;6.756;2022-07-10T07:52:16;15.40;99.90
50804;DHT22;37205;51.434;6.756;2022-07-10T07:54:42;15.40;99.90
50804;DHT22;37205;51.434;6.756;2022-07-10T07:57:07;15.40;99.90
50804;DHT22;37205;51.434;6.756;2022-07-10T07:59:33;15.30;99.90
50804;DHT22;37205;51.434;6.756;2022-07-10T08:01:58;15.30;99.90
50804;DHT22;37205;51.434;6.756;2022-07-10T08:04:24;15.30;99.90
50804;DHT22;37205;51.434;6.756;2022-07-10T08:06:50;15.30;99.90
50804;DHT22;37205;51.434;6.756;2022-07-10T08:09:18;15.20;99.90
50804;DHT22;37205;51.434;6.756;2022-07-10T08:11:47;15.30;99.90
50804;DHT22;37205;51.434;6.756;2022-07-10T08:14:13;15.30;99.90
50804;DHT22;37205;51.434;6.756;2022-07-10T08:16:40;15.40;99.90
50804;DHT22;37205;51.434;6.756;2022-07-10T08:19:05;15.40;99.90
50804;DHT22;37205;51.434;6.756;2022-07-10T08:21:31;15.20;99.90
50804;DHT22;37205;51.434;6.756;2022-07-10T08:23:57;15.20;99.90
50804;DHT22;37205;51.434;6.756;2022-07-10T08:26:24;15.30;99.90
50804;DHT22;37205;51.434;6.756;2022-07-10T08:28:50;15.40;99.90
50804;DHT22;37205;51.434;6.756;2022-07-10T08:31:15;15.50;99.90
50804;DHT22;37205;51.434;6.756;2022-07-10T08:33:41;15.40;99.90
50804;DHT22;37205;51.434;6.756;2022-07-10T08:36:07;15.60;99.90
50804;DHT22;37205;51.434;6.756;2022-07-10T08:38:32;15.50;99.90
50804;DHT22;37205;51.434;6.756;2022-07-10T08:40:59;15.40;99.90
50804;DHT22;37205;51.434;6.756;2022-07-10T08:43:28;15.50;99.90
50804;DHT22;37205;51.434;6.756;2022-07-10T08:45:54;15.50;99.90
50804;DHT22;37205;51.434;6.756;2022-07-10T08:48:23;15.70;99.90
50804;DHT22;37205;51.434;6.756;2022-07-10T08:50:52;15.70;99.90
50804;DHT22;37205;51.434;6.756;2022-07-10T08:53:29;15.70;99.90
50804;DHT22;37205;51.434;6.756;2022-07-10T08:55:56;15.80;99.90
50804;DHT22;37205;51.434;6.756;2022-07-10T08:58:22;15.70;99.90
50804;DHT22;37205;51.434;6.756;2022-07-10T09:00:48;15.80;99.90
50804;DHT22;37205;51.434;6.756;2022-07-10T09:03:13;15.80;99.90
50804;DHT22;37205;51.434;6.756;2022-07-10T09:05:39;15.70;99.90
50804;DHT22;37205;51.434;6.756;2022-07-10T09:08:24;15.70;99.90
50804;DHT22;37205;51.434;6.756;2022-07-10T09:10:50;15.70;99.90
50804;DHT22;37205;51.434;6.756;2022-07-10T09:13:16;15.70;99.90
50804;DHT22;37205;51.434;6.756;2022-07-10T09:15:48;15.60;99.90
50804;DHT22;37205;51.434;6.756;2022-07-10T09:18:18;15.60;99.90
50804;DHT22;37205;51.434;6.756;2022-07-10T09:20:45;15.60;99.90
50804;DHT22;37205;51.434;6.756;2022-07-10T09:23:16;15.60;99.90
50804;DHT22;37205;51.434;6.756;2022-07-10T09:25:52;15.50;99.90
50804;DHT22;37205;51.434;6.756;2022-07-10T09:28:22;15.50;99.90
50804;DHT22;37205;51.434;6.756;2022-07-10T09:30:49;15.50;99.90
50804;DHT22;37205;51.434;6.756;2022-07-10T09:33:28;15.60;99.90
50804;DHT22;37205;51.434;6.756;2022-07-10T09:38:52;15.50;99.90
50804;DHT22;37205;51.434;6.756;2022-07-10T09:41:24;15.70;99.90
50804;DHT22;37205;51.434;6.756;2022-07-10T09:43:57;15.70;99.90
50804;DHT22;37205;51.434;6.756;2022-07-10T09:46:35;15.80;99.90
50804;DHT22;37205;51.434;6.756;2022-07-10T09:49:14;15.70;99.90
50804;DHT22;37205;51.434;6.756;2022-07-10T09:51:44;15.80;99.90
50804;DHT22;37205;51.434;6.756;2022-07-10T09:54:11;15.80;99.90
50804;DHT22;37205;51.434;6.756;2022-07-10T09:56:44;15.90;99.90
50804;DHT22;37205;51.434;6.756;2022-07-10T09:59:16;15.90;99.90
50804;DHT22;37205;51.434;6.756;2022-07-10T10:04:11;16.20;99.90
50804;DHT22;37205;51.434;6.756;2022-07-10T10:06:39;16.20;99.90
50804;DHT22;37205;51.434;6.756;2022-07-10T10:11:50;16.30;99.90
50804;DHT22;37205;51.434;6.756;2022-07-10T10:14:18;16.20;99.90
50804;DHT22;37205;51.434;6.756;2022-07-10T10:16:46;16.20;99.90
50804;DHT22;37205;51.434;6.756;2022-07-10T10:19:13;16.20;99.90
50804;DHT22;37205;51.434;6.756;2022-07-10T10:21:59;16.10;99.90
50804;DHT22;37205;51.434;6.756;2022-07-10T10:24:26;16.20;99.90
50804;DHT22;37205;51.434;6.756;2022-07-10T10:26:52;16.10;99.90
50804;DHT22;37205;51.434;6.756;2022-07-10T10:29:19;16.10;99.90
50804;DHT22;37205;51.434;6.756;2022-07-10T10:31:44;16.20;99.90
50804;DHT22;37205;51.434;6.756;2022-07-10T10:34:10;16.20;99.90
50804;DHT22;37205;51.434;6.756;2022-07-10T10:39:08;16.40;99.90
50804;DHT22;37205;51.434;6.756;2022-07-10T10:41:38;16.40;99.90
50804;DHT22;37205;51.434;6.756;2022-07-10T10:46:37;16.80;99.90
50804;DHT22;37205;51.434;6.756;2022-07-10T10:49:23;16.90;99.90
50804;DHT22;37205;51.434;6.756;2022-07-10T10:52:03;17.00;99.90
50804;DHT22;37205;51.434;6.756;2022-07-10T10:57:16;17.00;99.90
50804;DHT22;37205;51.434;6.756;2022-07-10T10:59:54;16.90;99.90
50804;DHT22;37205;51.434;6.756;2022-07-10T11:02:29;16.90;99.90
50804;DHT22;37205;51.434;6.756;2022-07-10T11:07:58;16.80;99.90
50804;DHT22;37205;51.434;6.756;2022-07-10T11:10:32;16.80;99.90
50804;DHT22;37205;51.434;6.756;2022-07-10T11:13:04;16.80;99.90
50804;DHT22;37205;51.434;6.756;2022-07-10T11:15:32;16.80;99.90
50804;DHT22;37205;51.434;6.756;2022-07-10T11:18:08;16.90;99.90
50804;DHT22;37205;51.434;6.756;2022-07-10T11:20:36;17.00;99.90
50804;DHT22;37205;51.434;6.756;2022-07-10T11:25:54;17.20;99.90
50804;DHT22;37205;51.434;6.756;2022-07-10T11:28:59;17.40;99.90
50804;DHT22;37205;51.434;6.756;2022-07-10T11:31:27;17.60;99.90
50804;DHT22;37205;51.434;6.756;2022-07-10T11:33:54;17.80;99.90
50804;DHT22;37205;51.434;6.756;2022-07-10T11:38:57;18.00;99.90
50804;DHT22;37205;51.434;6.756;2022-07-10T11:41:23;18.10;99.90
50804;DHT22;37205;51.434;6.756;2022-07-10T11:43:56;18.00;99.90
50804;DHT22;37205;51.434;6.756;2022-07-10T11:46:25;17.90;99.90
50804;DHT22;37205;51.434;6.756;2022-07-10T11:48:51;17.90;99.90
50804;DHT22;37205;51.434;6.756;2022-07-10T11:51:21;17.80;99.90
50804;DHT22;37205;51.434;6.756;2022-07-10T11:56:27;17.60;99.90
50804;DHT22;37205;51.434;6.756;2022-07-10T11:59:04;17.50;99.90
50804;DHT22;37205;51.434;6.756;2022-07-10T12:01:32;17.40;99.90
50804;DHT22;37205;51.434;6.756;2022-07-10T12:04:03;17.20;99.90
50804;DHT22;37205;51.434;6.756;2022-07-10T12:06:30;17.10;99.90
50804;DHT22;37205;51.434;6.756;2022-07-10T12:09:03;17.10;99.90
50804;DHT22;37205;51.434;6.756;2022-07-10T12:11:29;17.00;99.90
50804;DHT22;37205;51.434;6.756;2022-07-10T12:14:17;16.80;99.90
50804;DHT22;37205;51.434;6.756;2022-07-10T12:16:48;16.70;99.90
50804;DHT22;37205;51.434;6.756;2022-07-10T12:19:16;16.70;99.90
50804;DHT22;37205;51.434;6.756;2022-07-10T12:21:43;16.60;99.90
50804;DHT22;37205;51.434;6.756;2022-07-10T12:24:09;16.60;99.90
50804;DHT22;37205;51.434;6.756;2022-07-10T12:26:38;16.60;99.90
50804;DHT22;37205;51.434;6.756;2022-07-10T12:29:05;16.60;99.90
50804;DHT22;37205;51.434;6.756;2022-07-10T12:31:32;16.70;99.90
50804;DHT22;37205;51.434;6.756;2022-07-10T12:34:02;16.80;99.90
50804;DHT22;37205;51.434;6.756;2022-07-10T12:39:11;17.30;99.90
50804;DHT22;37205;51.434;6.756;2022-07-10T12:42:02;17.50;99.90
50804;DHT22;37205;51.434;6.756;2022-07-10T12:44:41;17.80;99.90
50804;DHT22;37205;51.434;6.756;2022-07-10T12:47:12;18.00;99.90
50804;DHT22;37205;51.434;6.756;2022-07-10T12:49:57;18.10;99.90
50804;DHT22;37205;51.434;6.756;2022-07-10T12:52:34;18.10;99.90
50804;DHT22;37205;51.434;6.756;2022-07-10T12:55:17;18.10;99.90
50804;DHT22;37205;51.434;6.756;2022-07-10T12:57:56;18.00;99.90
50804;DHT22;37205;51.434;6.756;2022-07-10T13:00:24;17.90;99.90
50804;DHT22;37205;51.434;6.756;2022-07-10T13:03:00;18.00;99.90
50804;DHT22;37205;51.434;6.756;2022-07-10T13:05:46;18.30;99.90
50804;DHT22;37205;51.434;6.756;2022-07-10T13:08:16;18.50;99.90
50804;DHT22;37205;51.434;6.756;2022-07-10T13:10:54;18.70;99.90
50804;DHT22;37205;51.434;6.756;2022-07-10T13:13:20;18.90;99.90
50804;DHT22;37205;51.434;6.756;2022-07-10T13:15:47;18.90;99.90
50804;DHT22;37205;51.434;6.756;2022-07-10T13:18:17;19.20;99.90
50804;DHT22;37205;51.434;6.756;2022-07-10T13:20:47;19.40;99.90
50804;DHT22;37205;51.434;6.756;2022-07-10T13:23:13;19.60;99.90
50804;DHT22;37205;51.434;6.756;2022-07-10T13:25:39;19.80;99.90
50804;DHT22;37205;51.434;6.756;2022-07-10T13:28:06;19.90;99.90
50804;DHT22;37205;51.434;6.756;2022-07-10T13:30:35;20.10;99.90
50804;DHT22;37205;51.434;6.756;2022-07-10T13:33:01;20.20;99.90
50804;DHT22;37205;51.434;6.756;2022-07-10T13:35:30;20.20;99.90
50804;DHT22;37205;51.434;6.756;2022-07-10T13:37:57;20.10;99.90
50804;DHT22;37205;51.434;6.756;2022-07-10T13:40:32;20.20;99.90
50804;DHT22;37205;51.434;6.756;2022-07-10T13:42:58;20.20;99.90
50804;DHT22;37205;51.434;6.756;2022-07-10T13:45:25;20.20;99.90
50804;DHT22;37205;51.434;6.756;2022-07-10T13:47:52;20.40;99.90
50804;DHT22;37205;51.434;6.756;2022-07-10T13:50:20;20.40;99.90
50804;DHT22;37205;51.434;6.756;2022-07-10T13:52:46;20.30;99.90
50804;DHT22;37205;51.434;6.756;2022-07-10T13:55:11;20.40;99.90
50804;DHT22;37205;51.434;6.756;2022-07-10T13:57:38;20.30;99.90
50804;DHT22;37205;51.434;6.756;2022-07-10T14:00:04;20.30;99.90
50804;DHT22;37205;51.434;6.756;2022-07-10T14:02:29;20.30;99.90
50804;DHT22;37205;51.434;6.756;2022-07-10T14:04:55;20.20;99.90
50804;DHT22;37205;51.434;6.756;2022-07-10T14:07:20;20.20;99.90
50804;DHT22;37205;51.434;6.756;2022-07-10T14:09:46;19.80;99.90
50804;DHT22;37205;51.434;6.756;2022-07-10T14:12:12;19.80;99.90
50804;DHT22;37205;51.434;6.756;2022-07-10T14:14:37;19.80;99.90
50804;DHT22;37205;51.434;6.756;2022-07-10T14:17:03;19.60;99.90
50804;DHT22;37205;51.434;6.756;2022-07-10T14:19:29;19.50;99.90
50804;DHT22;37205;51.434;6.756;2022-07-10T14:21:54;19.60;99.90
50804;DHT22;37205;51.434;6.756;2022-07-10T14:24:20;19.60;99.90
50804;DHT22;37205;51.434;6.756;2022-07-10T14:26:45;19.60;99.90
50804;DHT22;37205;51.434;6.756;2022-07-10T14:29:12;19.60;99.90
50804;DHT22;37205;51.434;6.756;2022-07-10T14:31:39;19.50;99.90
50804;DHT22;37205;51.434;6.756;2022-07-10T14:34:04;19.50;99.90
50804;DHT22;37205;51.434;6.756;2022-07-10T14:36:31;19.50;99.90
50804;DHT22;37205;51.434;6.756;2022-07-10T14:38:58;19.50;99.90
50804;DHT22;37205;51.434;6.756;2022-07-10T14:41:24;19.50;99.90
50804;DHT22;37205;51.434;6.756;2022-07-10T14:43:51;19.40;99.90
50804;DHT22;37205;51.434;6.756;2022-07-10T14:46:16;19.50;99.90
50804;DHT22;37205;51.434;6.756;2022-07-10T14:48:42;19.60;99.90
50804;DHT22;37205;51.434;6.756;2022-07-10T14:51:07;19.60;99.90
50804;DHT22;37205;51.434;6.756;2022-07-10T14:53:34;19.80;99.90
50804;DHT22;37205;51.434;6.756;2022-07-10T14:56:05;19.90;99.90
50804;DHT22;37205;51.434;6.756;2022-07-10T14:58:32;20.20;99.90
50804;DHT22;37205;51.434;6.756;2022-07-10T15:00:57;20.50;99.90
50804;DHT22;37205;51.434;6.756;2022-07-10T15:03:23;20.60;99.90
50804;DHT22;37205;51.434;6.756;2022-07-10T15:05:50;20.60;99.90
50804;DHT22;37205;51.434;6.756;2022-07-10T15:08:22;20.70;99.90
50804;DHT22;37205;51.434;6.756;2022-07-10T15:10:48;20.80;99.90
50804;DHT22;37205;51.434;6.756;2022-07-10T15:13:14;20.90;99.90
50804;DHT22;37205;51.434;6.756;2022-07-10T15:15:40;20.80;99.90
50804;DHT22;37205;51.434;6.756;2022-07-10T15:18:06;20.90;99.90
50804;DHT22;37205;51.434;6.756;2022-07-10T15:20:31;20.70;99.90
50804;DHT22;37205;51.434;6.756;2022-07-10T15:22:57;20.50;99.90
50804;DHT22;37205;51.434;6.756;2022-07-10T15:25:23;20.50;99.90
50804;DHT22;37205;51.434;6.756;2022-07-10T15:27:50;20.50;99.90
50804;DHT22;37205;51.434;6.756;2022-07-10T15:30:15;20.70;99.90
50804;DHT22;37205;51.434;6.756;2022-07-10T15:32:41;20.80;99.90
50804;DHT22;37205;51.434;6.756;2022-07-10T15:35:07;20.90;99.90
50804;DHT22;37205;51.434;6.756;2022-07-10T15:37:33;21.20;99.90
50804;DHT22;37205;51.434;6.756;2022-07-10T15:39:59;21.30;99.90
50804;DHT22;37205;51.434;6.756;2022-07-10T15:42:24;21.20;99.90
50804;DHT22;37205;51.434;6.756;2022-07-10T15:44:50;21.20;99.90
50804;DHT22;37205;51.434;6.756;2022-07-10T15:47:15;21.10;99.90
50804;DHT22;37205;51.434;6.756;2022-07-10T15:49:42;21.20;99.90
50804;DHT22;37205;51.434;6.756;2022-07-10T15:52:07;21.20;99.90
50804;DHT22;37205;51.434;6.756;2022-07-10T15:54:33;21.30;99.90
50804;DHT22;37205;51.434;6.756;2022-07-10T15:56:59;21.30;99.90
50804;DHT22;37205;51.434;6.756;2022-07-10T15:59:27;21.20;99.90
50804;DHT22;37205;51.434;6.756;2022-07-10T16:01:54;21.30;99.90